Time;durP1;ratioP1;P1;durP2;ratioP2;P2;SDS_P1;SDS_P2;PMS_P1;PMS_P2;Temp;Humidity;BMP_temperature;BMP_pressure;BME280_temperature;BME280_humidity;BME280_pressure;Samples;Min_cycle;Max_cycle;Signal;HPM_P1;HPM_P2
2023/05/01 00:00:17;;;;;;;5.63;5.13;;;11.30;99.90;;;;;;5075831;28;20195;-38
2023/05/01 00:02:47;;;;;;;6.50;4.87;;;11.30;99.90;;;;;;5059706;28;20187;-41
2023/05/01 00:05:13;;;;;;;5.60;5.10;;;11.20;99.90;;;;;;5069357;28;20236;-37
2023/05/01 00:07:39;;;;;;;10.73;5.70;;;11.20;99.90;;;;;;5049995;28;20185;-43
2023/05/01 00:10:06;;;;;;;5.20;4.70;;;11.30;99.90;;;;;;5068696;28;20205;-38
2023/05/01 00:12:31;;;;;;;6.20;5.27;;;11.40;99.90;;;;;;5055908;28;20191;-40
2023/05/01 00:14:57;;;;;;;5.37;4.77;;;11.40;99.90;;;;;;5076091;28;20190;-38
2023/05/01 00:17:23;;;;;;;5.73;5.23;;;11.40;99.90;;;;;;5077492;28;20197;-38
2023/05/01 00:19:53;;;;;;;7.13;5.60;;;11.40;99.90;;;;;;5069441;28;20221;-41
2023/05/01 00:22:19;;;;;;;5.70;4.97;;;11.40;99.90;;;;;;5070469;28;20186;-39
2023/05/01 00:24:47;;;;;;;5.40;4.90;;;11.40;99.90;;;;;;5051528;28;20262;-38
2023/05/01 00:27:13;;;;;;;6.70;5.87;;;11.40;99.90;;;;;;5052160;28;20187;-39
2023/05/01 00:29:39;;;;;;;6.47;5.10;;;11.40;99.90;;;;;;5051734;28;20245;-37
2023/05/01 00:32:05;;;;;;;7.27;5.40;;;11.40;99.90;;;;;;5069002;28;20239;-38
2023/05/01 00:34:32;;;;;;;6.40;5.43;;;11.40;99.90;;;;;;5061441;28;20180;-39
2023/05/01 00:36:58;;;;;;;5.50;4.90;;;11.40;99.90;;;;;;5057935;28;20184;-39
2023/05/01 00:39:24;;;;;;;5.60;5.10;;;11.40;99.90;;;;;;5051820;28;20192;-39
2023/05/01 00:41:49;;;;;;;6.60;5.13;;;11.40;99.90;;;;;;5067467;28;20246;-37
2023/05/01 00:44:15;;;;;;;6.53;5.60;;;11.40;99.90;;;;;;5065741;28;20259;-39
2023/05/01 00:46:42;;;;;;;5.90;5.30;;;11.40;99.90;;;;;;5067005;28;20180;-37
2023/05/01 00:49:08;;;;;;;6.07;5.47;;;11.40;99.90;;;;;;5053064;28;20188;-37
2023/05/01 00:51:34;;;;;;;5.33;4.83;;;11.40;99.90;;;;;;5079076;28;20207;-38
2023/05/01 00:54:01;;;;;;;5.00;4.60;;;11.40;99.90;;;;;;5068675;28;20231;-37
2023/05/01 00:56:29;;;;;;;5.73;5.10;;;11.40;99.90;;;;;;5052107;28;20191;-37
2023/05/01 00:58:56;;;;;;;5.60;5.03;;;11.50;99.90;;;;;;5070874;28;20191;-38
2023/05/01 01:01:22;;;;;;;5.70;5.20;;;11.50;99.90;;;;;;5034909;28;20212;-37
2023/05/01 01:03:53;;;;;;;5.73;5.23;;;11.50;99.90;;;;;;5068862;28;20202;-37
2023/05/01 01:06:54;;;;;;;6.63;5.27;;;11.40;99.90;;;;;;5063590;28;20195;-36
2023/05/01 01:09:57;;;;;;;5.90;5.30;;;11.30;99.90;;;;;;5051616;28;20187;-40
2023/05/01 01:12:29;;;;;;;6.50;5.50;;;11.20;99.90;;;;;;5047565;28;20198;-37
2023/05/01 01:15:27;;;;;;;7.50;6.00;;;11.10;99.90;;;;;;5048995;28;20231;-40
2023/05/01 01:18:16;;;;;;;6.47;5.87;;;11.10;99.90;;;;;;5057443;28;20196;-37
2023/05/01 01:20:53;;;;;;;5.43;4.97;;;11.10;99.90;;;;;;5069378;28;20214;-39
2023/05/01 01:23:38;;;;;;;6.00;5.40;;;11.10;99.90;;;;;;5052902;28;20201;-38
2023/05/01 01:26:21;;;;;;;6.10;5.50;;;11.20;99.90;;;;;;5065639;28;20170;-37
2023/05/01 01:29:13;;;;;;;5.90;5.40;;;11.20;99.90;;;;;;5064419;28;20179;-37
2023/05/01 01:32:07;;;;;;;5.67;5.17;;;11.20;99.90;;;;;;5028073;28;20203;-38
2023/05/01 01:34:49;;;;;;;6.00;5.40;;;11.10;99.90;;;;;;5051873;28;20192;-41
2023/05/01 01:37:36;;;;;;;5.47;4.97;;;11.10;99.90;;;;;;5072875;28;20198;-39
2023/05/01 01:40:09;;;;;;;5.20;4.70;;;11.10;99.90;;;;;;5067416;28;20206;-37
2023/05/01 01:42:43;;;;;;;6.37;5.60;;;11.10;99.90;;;;;;5072500;28;20236;-37
2023/05/01 01:45:18;;;;;;;6.60;6.00;;;11.10;99.90;;;;;;5057750;28;20202;-39
2023/05/01 01:47:46;;;;;;;6.10;5.50;;;11.10;99.90;;;;;;5078582;28;20173;-39
2023/05/01 01:50:14;;;;;;;6.10;5.60;;;11.10;99.90;;;;;;5054872;28;20195;-36
2023/05/01 01:52:42;;;;;;;6.23;5.63;;;11.10;99.90;;;;;;5053782;28;20174;-37
2023/05/01 01:55:11;;;;;;;6.77;5.50;;;11.20;99.90;;;;;;5071387;28;20187;-40
2023/05/01 01:57:38;;;;;;;6.37;5.80;;;11.10;99.90;;;;;;5079846;28;20192;-38
2023/05/01 02:00:09;;;;;;;6.30;5.70;;;11.10;99.90;;;;;;5070915;28;20758;-43
2023/05/01 02:02:40;;;;;;;5.97;5.47;;;11.10;99.90;;;;;;5054573;28;20188;-36
2023/05/01 02:05:14;;;;;;;7.37;6.57;;;11.20;99.90;;;;;;5072240;28;20229;-38
2023/05/01 02:07:42;;;;;;;6.20;5.70;;;11.20;99.90;;;;;;5073104;28;20180;-37
2023/05/01 02:10:10;;;;;;;6.20;5.60;;;11.30;99.90;;;;;;5071110;28;20199;-39
2023/05/01 02:12:36;;;;;;;6.30;5.40;;;11.30;99.90;;;;;;5062816;28;20270;-38
2023/05/01 02:15:05;;;;;;;5.67;5.17;;;11.30;99.90;;;;;;5069151;28;20245;-38
2023/05/01 02:17:31;;;;;;;6.20;5.50;;;11.30;99.90;;;;;;5052590;28;20199;-37
2023/05/01 02:19:58;;;;;;;5.90;5.30;;;11.30;99.90;;;;;;5066400;28;20186;-44
2023/05/01 02:22:25;;;;;;;5.90;5.30;;;11.30;99.90;;;;;;5055088;28;20216;-38
2023/05/01 02:24:54;;;;;;;6.77;6.17;;;11.30;99.90;;;;;;5070154;28;20214;-37
2023/05/01 02:27:25;;;;;;;5.93;5.33;;;11.30;99.90;;;;;;5066976;28;20191;-36
2023/05/01 02:29:52;;;;;;;5.80;5.30;;;11.20;99.90;;;;;;5070778;28;20183;-39
2023/05/01 02:32:19;;;;;;;6.50;6.00;;;11.20;99.90;;;;;;5053526;28;20173;-44
2023/05/01 02:34:45;;;;;;;6.50;5.83;;;11.20;99.90;;;;;;5068608;28;20189;-38
2023/05/01 02:37:11;;;;;;;6.67;6.03;;;11.10;99.90;;;;;;5058774;28;20184;-37
2023/05/01 02:39:40;;;;;;;6.77;6.17;;;11.20;99.90;;;;;;5054052;28;20177;-39
2023/05/01 02:42:08;;;;;;;6.37;5.70;;;11.30;99.90;;;;;;5070678;28;20181;-38
2023/05/01 02:45:00;;;;;;;7.00;6.40;;;11.30;99.90;;;;;;5071205;28;20233;-43
2023/05/01 02:47:29;;;;;;;8.07;6.30;;;11.30;99.90;;;;;;5052500;28;20197;-38
2023/05/01 02:49:56;;;;;;;7.20;6.50;;;11.30;99.90;;;;;;5053919;28;20261;-37
2023/05/01 02:52:22;;;;;;;7.07;6.37;;;11.40;99.90;;;;;;5068992;28;20175;-38
2023/05/01 02:54:54;;;;;;;7.17;6.47;;;11.40;99.90;;;;;;5069299;28;20185;-38
2023/05/01 02:57:20;;;;;;;6.90;6.20;;;11.40;99.90;;;;;;5069639;28;20184;-37
2023/05/01 02:59:46;;;;;;;6.93;6.27;;;11.40;99.90;;;;;;5054054;28;20187;-39
2023/05/01 03:02:12;;;;;;;6.90;6.20;;;11.40;99.90;;;;;;5053504;28;20176;-38
2023/05/01 03:04:38;;;;;;;7.00;6.40;;;11.40;99.90;;;;;;5069706;28;20203;-39
2023/05/01 03:07:05;;;;;;;7.23;6.53;;;11.40;99.90;;;;;;5059370;28;20277;-38
2023/05/01 03:09:31;;;;;;;6.97;6.33;;;11.30;99.90;;;;;;5053664;28;20192;-37
2023/05/01 03:11:57;;;;;;;7.00;6.20;;;11.30;99.90;;;;;;5070383;28;20205;-38
2023/05/01 03:14:23;;;;;;;6.93;6.20;;;11.30;99.90;;;;;;5053292;28;20182;-42
2023/05/01 03:16:49;;;;;;;7.23;6.53;;;11.30;99.90;;;;;;5078182;28;20554;-38
2023/05/01 03:19:14;;;;;;;7.47;6.67;;;11.30;99.90;;;;;;5068292;28;20179;-39
2023/05/01 03:21:40;;;;;;;7.13;6.43;;;11.30;99.90;;;;;;5067958;28;20219;-38
2023/05/01 03:24:07;;;;;;;8.37;7.20;;;11.30;99.90;;;;;;5053312;28;20226;-38
2023/05/01 03:26:33;;;;;;;7.13;6.53;;;11.30;99.90;;;;;;5061652;28;20186;-38
2023/05/01 03:28:59;;;;;;;8.27;6.90;;;11.30;99.90;;;;;;5062526;28;20176;-38
2023/05/01 03:31:25;;;;;;;9.67;6.60;;;11.30;99.90;;;;;;5031410;28;20286;-38
2023/05/01 03:33:53;;;;;;;7.50;6.70;;;11.30;99.90;;;;;;5064224;28;20185;-39
2023/05/01 03:36:21;;;;;;;7.40;6.73;;;11.30;99.90;;;;;;5035416;28;20188;-38
2023/05/01 03:38:47;;;;;;;7.80;7.00;;;11.30;99.90;;;;;;5032863;28;20176;-40
2023/05/01 03:41:32;;;;;;;7.63;6.93;;;11.30;99.90;;;;;;5069252;28;20245;-38
2023/05/01 03:44:06;;;;;;;7.67;6.97;;;11.30;99.90;;;;;;5050479;28;20231;-41
2023/05/01 03:46:39;;;;;;;7.40;6.70;;;11.30;99.90;;;;;;5053114;28;20175;-39
2023/05/01 03:49:06;;;;;;;7.77;6.97;;;11.20;99.90;;;;;;5053708;28;20233;-41
2023/05/01 03:51:38;;;;;;;8.17;6.80;;;11.20;99.90;;;;;;5050953;28;20254;-40
2023/05/01 03:54:05;;;;;;;7.83;7.10;;;11.20;99.90;;;;;;5052617;28;20180;-43
2023/05/01 03:56:42;;;;;;;7.33;6.30;;;11.20;99.90;;;;;;5059912;28;20180;-38
2023/05/01 03:59:08;;;;;;;7.57;6.77;;;11.20;99.90;;;;;;5060953;28;20655;-39
2023/05/01 04:01:34;;;;;;;7.13;6.43;;;11.20;99.90;;;;;;5052214;28;20193;-39
2023/05/01 04:04:00;;;;;;;7.00;6.30;;;11.20;99.90;;;;;;5068582;28;20211;-37
2023/05/01 04:06:27;;;;;;;6.90;6.20;;;11.10;99.90;;;;;;5051516;28;20183;-40
2023/05/01 04:08:53;;;;;;;7.30;6.03;;;11.10;99.90;;;;;;5054628;28;20225;-41
2023/05/01 04:11:19;;;;;;;7.93;6.43;;;11.10;99.90;;;;;;5068997;28;20207;-41
2023/05/01 04:13:44;;;;;;;6.77;6.17;;;11.10;99.90;;;;;;5057028;28;20191;-38
2023/05/01 04:16:11;;;;;;;7.53;6.83;;;11.10;99.90;;;;;;5062194;28;20197;-44
2023/05/01 04:18:37;;;;;;;7.53;6.73;;;11.00;99.90;;;;;;5069502;28;20241;-38
2023/05/01 04:21:03;;;;;;;7.67;6.87;;;11.00;99.90;;;;;;5048052;28;20708;-38
2023/05/01 04:23:29;;;;;;;7.33;6.60;;;10.90;99.90;;;;;;5053286;28;20297;-39
2023/05/01 04:25:57;;;;;;;8.73;7.07;;;10.90;99.90;;;;;;5051372;28;20184;-38
2023/05/01 04:28:23;;;;;;;8.37;6.57;;;10.90;99.90;;;;;;5069241;28;20178;-38
2023/05/01 04:30:49;;;;;;;7.90;7.00;;;10.90;99.90;;;;;;5068915;28;20200;-40
2023/05/01 04:33:15;;;;;;;7.40;6.70;;;11.00;99.90;;;;;;5059597;28;20218;-43
2023/05/01 04:35:41;;;;;;;7.87;7.13;;;11.00;99.90;;;;;;5055532;28;20214;-38
2023/05/01 04:38:08;;;;;;;7.33;6.63;;;10.90;99.90;;;;;;5050785;28;20178;-39
2023/05/01 04:40:35;;;;;;;8.40;7.50;;;10.90;99.90;;;;;;5050977;28;20288;-40
2023/05/01 04:43:01;;;;;;;8.10;7.10;;;10.90;99.90;;;;;;5051023;28;20191;-40
2023/05/01 04:45:27;;;;;;;8.30;7.33;;;10.90;99.90;;;;;;5062922;28;20269;-38
2023/05/01 04:47:54;;;;;;;8.10;7.40;;;11.00;99.90;;;;;;5063488;28;20261;-38
2023/05/01 04:50:19;;;;;;;7.60;6.80;;;11.00;99.90;;;;;;5057223;28;20212;-42
2023/05/01 04:52:46;;;;;;;7.50;6.80;;;10.90;99.90;;;;;;5044868;28;20307;-40
2023/05/01 04:55:12;;;;;;;7.50;6.80;;;11.00;99.90;;;;;;5071542;28;20177;-38
2023/05/01 04:57:51;;;;;;;8.23;7.43;;;11.00;99.90;;;;;;5053592;28;20194;-41
2023/05/01 05:00:18;;;;;;;9.90;7.73;;;11.10;99.90;;;;;;5071729;28;20201;-40
2023/05/01 05:02:51;;;;;;;8.70;7.77;;;11.10;99.90;;;;;;5057022;28;20211;-41
2023/05/01 05:05:17;;;;;;;8.70;7.80;;;11.10;99.90;;;;;;5054669;28;20201;-38
2023/05/01 05:07:44;;;;;;;8.23;7.43;;;11.10;99.90;;;;;;5070729;28;20254;-39
2023/05/01 05:10:25;;;;;;;7.97;7.13;;;11.20;99.90;;;;;;5069532;28;20199;-41
2023/05/01 05:13:08;;;;;;;7.60;6.80;;;11.20;99.90;;;;;;5038355;28;20185;-38
2023/05/01 05:15:36;;;;;;;7.63;6.30;;;11.10;99.90;;;;;;5037826;28;20174;-38
2023/05/01 05:18:03;;;;;;;7.40;6.70;;;11.10;99.90;;;;;;5071255;28;20311;-39
2023/05/01 05:20:31;;;;;;;8.60;7.13;;;11.10;99.90;;;;;;5054552;28;20221;-40
2023/05/01 05:22:57;;;;;;;7.80;7.10;;;11.00;99.90;;;;;;5070887;28;20189;-40
2023/05/01 05:25:24;;;;;;;8.00;7.20;;;11.00;99.90;;;;;;5055339;28;20210;-40
2023/05/01 05:27:52;;;;;;;8.80;7.90;;;11.00;99.90;;;;;;5072596;28;20194;-40
2023/05/01 05:30:18;;;;;;;9.10;8.20;;;11.00;99.90;;;;;;5070172;28;20199;-40
2023/05/01 05:32:46;;;;;;;7.73;7.03;;;11.00;99.90;;;;;;5051195;28;20177;-38
2023/05/01 05:35:14;;;;;;;7.00;6.40;;;11.10;99.90;;;;;;5041386;28;20185;-40
2023/05/01 05:37:41;;;;;;;7.43;6.73;;;11.10;99.90;;;;;;5052541;28;20250;-37
2023/05/01 05:40:08;;;;;;;7.90;7.10;;;11.10;99.90;;;;;;5053735;28;20206;-38
2023/05/01 05:42:45;;;;;;;8.00;7.20;;;11.10;99.90;;;;;;5056923;28;20184;-42
2023/05/01 05:45:11;;;;;;;9.80;8.70;;;11.10;99.90;;;;;;5073238;28;20206;-38
2023/05/01 05:47:38;;;;;;;56.53;40.07;;;11.10;99.90;;;;;;5067036;28;20179;-40
2023/05/01 05:50:06;;;;;;;12.10;10.90;;;11.10;99.90;;;;;;5060713;28;20203;-39
2023/05/01 05:52:32;;;;;;;8.63;7.80;;;11.20;99.90;;;;;;5053711;28;20190;-40
2023/05/01 05:54:59;;;;;;;9.33;8.43;;;11.10;99.90;;;;;;5051047;28;20210;-37
2023/05/01 05:57:26;;;;;;;8.60;7.60;;;11.10;99.90;;;;;;5055116;28;20265;-38
2023/05/01 05:59:53;;;;;;;12.10;7.63;;;11.10;99.90;;;;;;5072235;28;20187;-38
2023/05/01 06:02:22;;;;;;;8.33;7.43;;;11.20;99.90;;;;;;5099127;23;20228;-41
2023/05/01 06:04:48;;;;;;;8.37;7.57;;;11.10;99.90;;;;;;5056898;28;20207;-41
2023/05/01 06:07:16;;;;;;;7.77;6.97;;;11.10;99.90;;;;;;5071088;28;20182;-41
2023/05/01 06:09:42;;;;;;;9.60;7.90;;;11.10;99.90;;;;;;5039242;28;20214;-41
2023/05/01 06:12:08;;;;;;;8.67;7.70;;;11.10;99.90;;;;;;5025322;28;20206;-41
2023/05/01 06:14:34;;;;;;;7.77;7.07;;;11.20;99.90;;;;;;5033784;28;20178;-40
2023/05/01 06:17:00;;;;;;;8.57;7.70;;;11.20;99.90;;;;;;5031185;28;20325;-42
2023/05/01 06:19:26;;;;;;;8.67;7.87;;;11.20;99.90;;;;;;5045151;28;20190;-40
2023/05/01 06:22:02;;;;;;;8.67;7.60;;;11.20;99.90;;;;;;5033656;28;20207;-40
2023/05/01 06:24:31;;;;;;;8.23;7.40;;;11.30;99.90;;;;;;5044202;28;20199;-39
2023/05/01 06:26:58;;;;;;;9.43;8.00;;;11.30;99.90;;;;;;5035926;28;20204;-41
2023/05/01 06:29:24;;;;;;;8.37;7.57;;;11.30;99.90;;;;;;5034037;28;20181;-40
2023/05/01 06:31:50;;;;;;;8.80;7.43;;;11.40;99.90;;;;;;5034156;28;20214;-41
2023/05/01 06:34:16;;;;;;;8.10;7.40;;;11.40;99.90;;;;;;5034761;28;20186;-39
2023/05/01 06:36:51;;;;;;;9.33;7.57;;;11.40;99.90;;;;;;5031391;28;20187;-40
2023/05/01 06:39:17;;;;;;;8.70;7.80;;;11.40;99.90;;;;;;5032855;28;20182;-41
2023/05/01 06:41:48;;;;;;;8.83;7.93;;;11.50;99.90;;;;;;5037226;28;20213;-41
2023/05/01 06:44:15;;;;;;;8.93;8.03;;;11.50;99.90;;;;;;5058374;28;20758;-40
2023/05/01 06:46:42;;;;;;;8.40;7.57;;;11.60;99.90;;;;;;5022698;28;20208;-39
2023/05/01 06:49:10;;;;;;;9.63;8.47;;;11.60;99.90;;;;;;5036377;28;20191;-42
2023/05/01 06:51:36;;;;;;;9.07;8.10;;;11.60;99.90;;;;;;5044006;28;20202;-41
2023/05/01 06:54:02;;;;;;;11.17;8.40;;;11.70;99.90;;;;;;5023218;28;20199;-39
2023/05/01 06:56:28;;;;;;;9.40;8.53;;;11.70;99.90;;;;;;5039693;28;20639;-41
2023/05/01 06:58:54;;;;;;;9.57;8.03;;;11.80;99.90;;;;;;5049510;28;20183;-41
2023/05/01 07:01:20;;;;;;;9.00;8.10;;;11.90;99.90;;;;;;5042537;28;20246;-40
2023/05/01 07:03:46;;;;;;;9.13;8.20;;;11.90;99.90;;;;;;5040768;28;20208;-43
2023/05/01 07:06:12;;;;;;;9.00;8.20;;;12.00;99.90;;;;;;5054391;28;20187;-42
2023/05/01 07:08:39;;;;;;;8.77;7.87;;;12.00;99.90;;;;;;5031623;28;20192;-40
2023/05/01 07:11:04;;;;;;;9.37;8.10;;;12.10;99.90;;;;;;5050804;28;20208;-39
2023/05/01 07:13:30;;;;;;;9.40;8.50;;;12.10;99.90;;;;;;5040131;28;20269;-39
2023/05/01 07:15:56;;;;;;;8.53;7.70;;;12.20;99.90;;;;;;5032620;28;20193;-41
2023/05/01 07:18:22;;;;;;;8.67;7.77;;;12.20;99.90;;;;;;5036923;28;20184;-41
2023/05/01 07:20:49;;;;;;;10.17;7.70;;;12.20;99.90;;;;;;5044825;28;20198;-41
2023/05/01 07:23:15;;;;;;;8.40;7.50;;;12.20;99.90;;;;;;5043846;28;20209;-42
2023/05/01 07:25:41;;;;;;;8.10;7.30;;;12.20;99.90;;;;;;5048224;28;20181;-40
2023/05/01 07:28:07;;;;;;;9.50;7.73;;;12.20;99.90;;;;;;5017013;28;20177;-41
2023/05/01 07:30:35;;;;;;;8.67;7.77;;;12.30;99.90;;;;;;5032457;28;20177;-41
2023/05/01 07:33:01;;;;;;;8.50;7.70;;;12.30;99.90;;;;;;5052101;28;20659;-41
2023/05/01 07:35:27;;;;;;;8.40;7.60;;;12.30;99.90;;;;;;5032724;28;20259;-39
2023/05/01 07:37:53;;;;;;;10.90;7.90;;;12.30;99.90;;;;;;5030254;28;20213;-41
2023/05/01 07:40:20;;;;;;;8.13;7.33;;;12.30;99.90;;;;;;5048288;28;20181;-41
2023/05/01 07:42:46;;;;;;;8.70;7.80;;;12.30;99.90;;;;;;5023630;28;20271;-41
2023/05/01 07:45:12;;;;;;;8.43;7.57;;;12.40;99.90;;;;;;5049931;28;20213;-41
2023/05/01 07:47:37;;;;;;;8.40;7.60;;;12.50;99.90;;;;;;5030460;28;20190;-41
2023/05/01 07:50:04;;;;;;;10.33;8.80;;;12.50;99.90;;;;;;5023996;28;20181;-42
2023/05/01 07:52:30;;;;;;;8.00;7.20;;;12.50;99.90;;;;;;5021890;28;20204;-41
2023/05/01 07:54:57;;;;;;;8.60;7.70;;;12.60;99.90;;;;;;5036392;28;20205;-39
2023/05/01 07:57:26;;;;;;;8.90;7.30;;;12.60;99.90;;;;;;5042778;28;20194;-41
2023/05/01 07:59:55;;;;;;;7.80;7.07;;;12.70;99.90;;;;;;5046479;28;20189;-40
2023/05/01 08:02:22;;;;;;;7.13;6.43;;;12.80;99.90;;;;;;5012914;28;20248;-41
2023/05/01 08:04:51;;;;;;;8.10;7.40;;;12.90;99.90;;;;;;5028896;28;20263;-39
2023/05/01 08:07:18;;;;;;;7.67;6.90;;;12.90;99.90;;;;;;5049900;28;20185;-41
2023/05/01 08:09:45;;;;;;;8.23;6.90;;;13.00;99.90;;;;;;5047781;28;20181;-39
2023/05/01 08:12:15;;;;;;;7.23;6.53;;;13.10;99.90;;;;;;5045289;28;20189;-42
2023/05/01 08:14:42;;;;;;;7.17;6.47;;;13.20;99.90;;;;;;5039304;28;20264;-40
2023/05/01 08:17:08;;;;;;;7.57;6.80;;;13.10;99.90;;;;;;5024262;28;20247;-40
2023/05/01 08:19:34;;;;;;;7.40;6.70;;;13.20;99.90;;;;;;5034306;28;20228;-41
2023/05/01 08:22:00;;;;;;;6.87;6.27;;;13.40;99.90;;;;;;5044728;28;20212;-41
2023/05/01 08:24:26;;;;;;;7.93;7.20;;;13.60;99.90;;;;;;5048109;28;20206;-40
2023/05/01 08:26:52;;;;;;;8.30;6.93;;;13.70;99.90;;;;;;5037796;28;20327;-42
2023/05/01 08:29:18;;;;;;;7.60;6.97;;;14.00;99.90;;;;;;5046111;28;20173;-42
2023/05/01 08:31:44;;;;;;;8.13;7.17;;;14.10;99.90;;;;;;5053280;28;20203;-42
2023/05/01 08:34:10;;;;;;;7.97;7.03;;;14.20;99.90;;;;;;5043869;28;20186;-41
2023/05/01 08:36:36;;;;;;;7.47;6.77;;;14.20;99.90;;;;;;5036572;28;20193;-42
2023/05/01 08:39:02;;;;;;;8.13;7.33;;;14.10;99.90;;;;;;5043474;28;20186;-42
2023/05/01 08:41:30;;;;;;;8.90;7.37;;;14.20;99.90;;;;;;5034543;28;20204;-40
2023/05/01 08:44:02;;;;;;;8.20;7.50;;;14.20;99.90;;;;;;5034058;28;20678;-42
2023/05/01 08:47:07;;;;;;;10.50;9.33;;;14.40;99.90;;;;;;5028863;28;20189;-42
2023/05/01 08:49:35;;;;;;;8.90;7.60;;;14.40;99.90;;;;;;5043520;28;20182;-42
2023/05/01 08:52:02;;;;;;;8.40;7.60;;;14.40;99.90;;;;;;5024635;28;20202;-42
2023/05/01 08:54:30;;;;;;;8.20;7.40;;;14.40;99.90;;;;;;5030331;28;20180;-37
2023/05/01 08:57:02;;;;;;;8.67;7.20;;;14.40;99.90;;;;;;5028485;28;20192;-42
2023/05/01 08:59:33;;;;;;;8.23;7.43;;;14.50;99.90;;;;;;5034610;28;20235;-40
2023/05/01 09:02:03;;;;;;;7.27;6.57;;;14.60;99.90;;;;;;5029916;28;20213;-42
2023/05/01 09:04:41;;;;;;;7.73;6.97;;;14.70;99.90;;;;;;5027335;28;20279;-38
2023/05/01 09:07:08;;;;;;;9.57;7.23;;;14.80;99.90;;;;;;5046960;28;20186;-42
2023/05/01 09:09:36;;;;;;;7.43;6.73;;;14.90;99.90;;;;;;5030681;28;20233;-42
2023/05/01 09:12:12;;;;;;;7.97;6.57;;;14.80;99.90;;;;;;5010756;28;20190;-42
2023/05/01 09:14:39;;;;;;;7.50;6.80;;;14.90;99.90;;;;;;5041143;28;20178;-41
2023/05/01 09:17:07;;;;;;;7.47;6.80;;;15.00;99.90;;;;;;5023149;28;20187;-40
2023/05/01 09:19:33;;;;;;;7.97;7.17;;;15.00;99.90;;;;;;5020102;28;20240;-40
2023/05/01 09:22:00;;;;;;;7.13;6.50;;;15.00;99.90;;;;;;5030177;28;20207;-42
2023/05/01 09:24:27;;;;;;;7.93;7.13;;;15.10;99.90;;;;;;5013392;28;20693;-40
2023/05/01 09:26:53;;;;;;;7.40;6.70;;;15.20;99.90;;;;;;5028180;28;20181;-42
2023/05/01 09:29:46;;;;;;;7.53;6.73;;;15.30;99.90;;;;;;5027718;28;20178;-42
2023/05/01 09:32:15;;;;;;;8.10;6.70;;;15.40;99.90;;;;;;5027405;28;20300;-42
2023/05/01 09:34:48;;;;;;;7.57;6.77;;;15.50;99.90;;;;;;5025701;28;20182;-41
2023/05/01 09:37:28;;;;;;;7.77;6.97;;;15.50;99.90;;;;;;5042170;28;20281;-41
2023/05/01 09:40:10;;;;;;;6.93;6.23;;;15.50;99.90;;;;;;5046285;28;20221;-41
2023/05/01 09:42:51;;;;;;;6.93;6.20;;;15.60;99.90;;;;;;5044700;28;20249;-41
2023/05/01 09:45:19;;;;;;;6.93;6.10;;;15.70;99.90;;;;;;5020243;28;20215;-42
2023/05/01 09:47:46;;;;;;;6.83;6.13;;;15.80;99.90;;;;;;5033414;28;20193;-43
2023/05/01 09:50:34;;;;;;;6.70;6.07;;;15.90;99.90;;;;;;5052216;28;20777;-42
2023/05/01 09:53:01;;;;;;;7.27;5.97;;;16.00;99.90;;;;;;5039117;28;20178;-40
2023/05/01 09:55:27;;;;;;;7.17;6.47;;;16.00;99.90;;;;;;5019011;28;20216;-42
2023/05/01 09:57:53;;;;;;;6.30;5.70;;;16.00;99.90;;;;;;5035107;28;20741;-38
2023/05/01 10:00:20;;;;;;;6.50;5.90;;;16.00;99.90;;;;;;5027113;28;20174;-40
2023/05/01 10:02:47;;;;;;;5.90;5.30;;;16.00;99.90;;;;;;5027441;28;20194;-42
2023/05/01 10:05:13;;;;;;;6.50;5.90;;;16.00;99.90;;;;;;5047233;28;20229;-40
2023/05/01 10:07:57;;;;;;;5.60;5.03;;;15.90;99.90;;;;;;5034463;28;20185;-42
2023/05/01 10:10:23;;;;;;;6.00;5.40;;;15.90;99.90;;;;;;5044190;28;20265;-40
2023/05/01 10:12:49;;;;;;;5.10;4.60;;;16.00;99.90;;;;;;5033684;28;20269;-41
2023/05/01 10:15:15;;;;;;;5.40;4.90;;;15.80;99.90;;;;;;5033832;28;20189;-42
2023/05/01 10:17:42;;;;;;;6.70;5.60;;;15.50;99.90;;;;;;5034854;28;20206;-43
2023/05/01 10:20:11;;;;;;;7.70;5.70;;;15.40;99.90;;;;;;5030924;28;20174;-42
2023/05/01 10:22:38;;;;;;;6.33;5.73;;;15.20;99.90;;;;;;5037450;28;20466;-44
2023/05/01 10:25:07;;;;;;;5.20;4.70;;;15.10;99.90;;;;;;5035191;28;20217;-43
2023/05/01 10:27:34;;;;;;;5.90;5.30;;;15.00;99.90;;;;;;5028510;28;20228;-41
2023/05/01 10:30:05;;;;;;;5.53;5.03;;;14.90;99.90;;;;;;5047362;28;20211;-43
2023/05/01 10:32:34;;;;;;;6.73;5.30;;;14.80;99.90;;;;;;5029593;28;20275;-43
2023/05/01 10:35:04;;;;;;;6.77;5.93;;;14.70;99.90;;;;;;5059935;28;20190;-43
2023/05/01 10:37:38;;;;;;;6.37;5.73;;;14.70;99.90;;;;;;5049329;28;20182;-44
2023/05/01 10:40:37;;;;;;;5.70;4.83;;;14.70;99.90;;;;;;5033124;28;20173;-42
2023/05/01 10:43:15;;;;;;;5.40;4.90;;;14.70;99.90;;;;;;5053429;28;20232;-44
2023/05/01 10:45:46;;;;;;;6.47;5.87;;;14.60;99.90;;;;;;5043770;28;20197;-44
2023/05/01 10:48:44;;;;;;;5.90;5.40;;;14.50;99.90;;;;;;5031731;28;20198;-44
2023/05/01 10:51:12;;;;;;;5.47;4.97;;;14.60;99.90;;;;;;5042691;28;20244;-38
2023/05/01 10:53:42;;;;;;;7.83;5.23;;;14.60;99.90;;;;;;5024615;28;20244;-44
2023/05/01 10:56:24;;;;;;;9.73;5.10;;;14.60;99.90;;;;;;5030551;28;20191;-44
2023/05/01 10:58:54;;;;;;;5.47;4.97;;;14.70;99.90;;;;;;5016496;28;20205;-43
2023/05/01 11:01:32;;;;;;;7.23;5.40;;;14.70;99.90;;;;;;5052826;28;20217;-44
2023/05/01 11:04:20;;;;;;;6.50;5.00;;;14.80;99.90;;;;;;5033571;28;20289;-44
2023/05/01 11:07:04;;;;;;;4.50;4.10;;;14.90;99.90;;;;;;5040821;28;20429;-44
2023/05/01 11:09:38;;;;;;;4.40;4.00;;;15.00;99.90;;;;;;5050669;28;20174;-44
2023/05/01 11:12:05;;;;;;;3.80;3.50;;;15.20;99.90;;;;;;5038132;28;20263;-44
2023/05/01 11:14:53;;;;;;;3.40;3.13;;;15.40;99.90;;;;;;5019174;28;20186;-43
2023/05/01 11:17:41;;;;;;;4.20;3.70;;;15.40;99.90;;;;;;5051394;28;20174;-43
2023/05/01 11:20:12;;;;;;;3.63;3.33;;;15.40;99.90;;;;;;5029992;28;20190;-40
2023/05/01 11:22:43;;;;;;;3.57;3.27;;;15.50;99.90;;;;;;5040837;28;20293;-42
2023/05/01 11:25:21;;;;;;;3.57;3.20;;;15.70;99.90;;;;;;5034498;28;20210;-43
2023/05/01 11:27:51;;;;;;;3.60;3.30;;;15.80;99.90;;;;;;5030684;28;20634;-42
2023/05/01 11:30:17;;;;;;;3.70;3.40;;;15.90;99.90;;;;;;5032461;28;20178;-42
2023/05/01 11:32:45;;;;;;;3.70;3.40;;;15.90;99.90;;;;;;5029918;28;20202;-42
2023/05/01 11:35:27;;;;;;;4.67;3.10;;;16.00;99.90;;;;;;5032741;28;20204;-43
2023/05/01 11:37:56;;;;;;;3.50;3.20;;;16.30;99.90;;;;;;5015999;28;20190;-43
2023/05/01 11:40:27;;;;;;;3.40;3.00;;;16.40;99.90;;;;;;5048455;28;20558;-38
2023/05/01 11:43:05;;;;;;;3.20;2.90;;;16.40;99.90;;;;;;5027763;28;20278;-42
2023/05/01 11:45:33;;;;;;;3.33;3.03;;;16.40;99.90;;;;;;5033726;28;20709;-42
2023/05/01 11:48:01;;;;;;;4.33;2.77;;;16.60;99.90;;;;;;5023937;28;20185;-40
2023/05/01 11:50:37;;;;;;;3.50;3.20;;;16.70;99.90;;;;;;5029907;28;20198;-40
2023/05/01 11:53:14;;;;;;;5.35;3.55;;;16.70;99.90;;;;;;5045145;28;20268;-41
2023/05/01 11:55:40;;;;;;;3.40;3.10;;;16.70;99.90;;;;;;5051860;28;20254;-44
2023/05/01 11:58:08;;;;;;;3.17;2.97;;;16.80;99.90;;;;;;5034648;28;20190;-43
2023/05/01 12:03:13;;;;;;;3.17;2.88;;;16.90;99.90;;;;;;5023609;28;20218;-37
2023/05/01 12:05:59;;;;;;;3.03;2.83;;;16.90;99.90;;;;;;4996203;28;20210;-40
2023/05/01 12:08:25;;;;;;;3.25;2.95;;;16.90;99.90;;;;;;5002202;28;20186;-39
2023/05/01 12:10:57;;;;;;;3.60;3.17;;;16.90;99.90;;;;;;4996802;28;20187;-38
2023/05/01 12:13:25;;;;;;;2.67;2.47;;;17.20;99.90;;;;;;5002846;28;20204;-39
2023/05/01 12:15:53;;;;;;;4.50;2.38;;;17.40;99.90;;;;;;5000959;28;20208;-40
2023/05/01 12:18:20;;;;;;;2.85;2.55;;;17.60;99.90;;;;;;4993652;28;20179;-39
2023/05/01 12:20:51;;;;;;;2.70;2.50;;;17.60;99.90;;;;;;4987282;28;20180;-40
2023/05/01 12:23:19;;;;;;;3.08;2.78;;;17.90;99.90;;;;;;5009314;28;20183;-40
2023/05/01 12:25:45;;;;;;;2.95;2.30;;;17.80;99.90;;;;;;5033714;28;20287;-40
2023/05/01 12:28:19;;;;;;;2.67;2.47;;;18.00;99.90;;;;;;5021915;28;20188;-39
2023/05/01 12:30:46;;;;;;;2.70;2.50;;;18.10;99.90;;;;;;4998725;28;20179;-41
2023/05/01 12:33:15;;;;;;;3.05;2.40;;;18.30;99.90;;;;;;5002523;28;20187;-39
2023/05/01 12:35:44;;;;;;;3.08;2.78;;;18.50;99.90;;;;;;5018699;28;20180;-40
2023/05/01 12:38:22;;;;;;;3.20;2.90;;;18.70;99.90;;;;;;5012132;28;20191;-38
2023/05/01 12:40:53;;;;;;;3.67;3.38;;;18.70;99.90;;;;;;4989823;28;20176;-41
2023/05/01 12:43:33;;;;;;;3.50;3.20;;;18.70;99.90;;;;;;4995150;28;20274;-38
2023/05/01 12:46:00;;;;;;;3.13;2.83;;;18.90;99.90;;;;;;5001045;28;20193;-39
2023/05/01 12:48:27;;;;;;;3.63;2.78;;;18.90;99.90;;;;;;4990712;28;20189;-39
2023/05/01 12:50:55;;;;;;;3.20;2.90;;;18.90;99.90;;;;;;5018765;28;20188;-41
2023/05/01 12:53:26;;;;;;;3.35;3.05;;;19.10;99.90;;;;;;4981203;28;20190;-40
2023/05/01 12:55:56;;;;;;;3.45;3.15;;;19.20;99.90;;;;;;4996639;28;20191;-39
2023/05/01 12:58:23;;;;;;;2.70;2.50;;;19.20;99.90;;;;;;4986466;28;20177;-40
2023/05/01 13:00:54;;;;;;;3.20;2.90;;;19.40;99.90;;;;;;4995651;28;20233;-37